Time;durP1;ratioP1;P1;durP2;ratioP2;P2;SDS_P1;SDS_P2;PMS_P1;PMS_P2;Temp;Humidity;BMP_temperature;BMP_pressure;BME280_temperature;BME280_humidity;BME280_pressure;Samples;Min_cycle;Max_cycle;Signal;HPM_P1;HPM_P2
2022/07/01 00:00:12;;;;;;;0.95;0.68;;;;;;;15.07;100.00;95947.16;5000273;28;25008;-75
2022/07/01 00:02:38;;;;;;;0.43;0.30;;;;;;;15.08;100.00;95948.81;5006478;28;24448;-75
2022/07/01 00:05:06;;;;;;;1.10;0.45;;;;;;;15.15;100.00;95950.81;5000390;28;24440;-75
2022/07/01 00:07:33;;;;;;;0.65;0.40;;;;;;;15.19;100.00;95949.63;5002387;28;24490;-75
2022/07/01 00:09:59;;;;;;;2.42;0.70;;;;;;;15.08;100.00;95946.19;5004557;28;24437;-75
2022/07/01 00:12:26;;;;;;;1.65;0.60;;;;;;;14.93;100.00;95951.66;5002909;28;24456;-75
2022/07/01 00:14:53;;;;;;;0.80;0.50;;;;;;;15.08;100.00;95941.81;5003705;28;24443;-75
2022/07/01 00:17:19;;;;;;;1.80;0.50;;;;;;;14.92;100.00;95939.56;5008247;28;24471;-75
2022/07/01 00:19:45;;;;;;;3.60;0.70;;;;;;;14.86;100.00;95947.03;4995263;28;24443;-75
2022/07/01 00:22:13;;;;;;;3.03;0.60;;;;;;;14.75;100.00;95940.03;4993240;28;24517;-75
2022/07/01 00:24:40;;;;;;;1.45;0.40;;;;;;;14.73;100.00;95934.94;4999192;28;24443;-75
2022/07/01 00:27:06;;;;;;;0.30;0.20;;;;;;;14.49;100.00;95931.56;4999678;28;24437;-74
2022/07/01 00:29:34;;;;;;;0.95;0.55;;;;;;;14.32;100.00;95929.41;4999988;28;24456;-75
2022/07/01 00:32:00;;;;;;;1.10;0.43;;;;;;;14.22;100.00;95930.09;4999878;28;24440;-75
2022/07/01 00:34:26;;;;;;;6.22;0.65;;;;;;;14.20;100.00;95924.19;5000031;28;24850;-75
2022/07/01 00:36:53;;;;;;;0.40;0.30;;;;;;;14.08;100.00;95922.47;5000353;28;24444;-74
2022/07/01 00:39:21;;;;;;;3.60;0.50;;;;;;;14.00;100.00;95930.03;5000098;28;24442;-75
2022/07/01 00:41:47;;;;;;;3.30;0.75;;;;;;;13.87;100.00;95921.44;4999851;28;24436;-75
2022/07/01 00:44:17;;;;;;;2.08;0.60;;;;;;;13.79;100.00;95930.66;4997666;28;24502;-75
2022/07/01 00:46:44;;;;;;;1.00;0.55;;;;;;;13.79;100.00;95929.81;5003035;28;24540;-75
2022/07/01 00:49:11;;;;;;;0.85;0.50;;;;;;;13.72;100.00;95929.44;5005998;28;24487;-75
2022/07/01 00:51:38;;;;;;;0.55;0.40;;;;;;;13.65;100.00;95933.44;4999530;28;25005;-75
2022/07/01 00:54:04;;;;;;;1.40;0.40;;;;;;;13.50;100.00;95937.16;5003071;28;24452;-75
2022/07/01 00:56:32;;;;;;;1.25;0.45;;;;;;;13.60;100.00;95932.91;5000951;28;24487;-75
2022/07/01 00:58:59;;;;;;;3.80;0.57;;;;;;;13.69;100.00;95942.69;5006198;28;24464;-75
2022/07/01 01:01:25;;;;;;;1.30;0.50;;;;;;;13.69;100.00;95942.69;4998480;28;24433;-75
2022/07/01 01:03:52;;;;;;;0.73;0.40;;;;;;;13.59;100.00;95952.09;4995634;28;24496;-75
2022/07/01 01:06:18;;;;;;;0.98;0.40;;;;;;;13.61;100.00;95946.75;4993591;28;24440;-75
2022/07/01 01:08:46;;;;;;;1.70;0.65;;;;;;;13.48;100.00;95946.81;4997675;28;24436;-75
2022/07/01 01:11:13;;;;;;;3.00;0.50;;;;;;;13.46;100.00;95944.34;4997306;28;24442;-75
2022/07/01 01:13:44;;;;;;;1.95;0.40;;;;;;;13.50;100.00;95945.78;4996573;28;21617;-75
2022/07/01 01:16:16;;;;;;;0.60;0.40;;;;;;;13.64;100.00;95928.31;4999776;28;25013;-75
2022/07/01 01:18:43;;;;;;;1.45;0.68;;;;;;;13.86;100.00;95923.22;5002439;28;24451;-75
2022/07/01 01:21:11;;;;;;;1.02;0.60;;;;;;;13.69;100.00;95921.03;4993273;28;24440;-75
2022/07/01 01:23:37;;;;;;;2.00;0.60;;;;;;;13.83;100.00;95912.19;4998583;28;24474;-75
2022/07/01 01:26:04;;;;;;;3.13;0.60;;;;;;;13.78;100.00;95910.75;5004523;28;24853;-75
2022/07/01 01:28:31;;;;;;;0.70;0.40;;;;;;;13.89;100.00;95920.41;5006471;28;24459;-75
2022/07/01 01:30:57;;;;;;;1.55;0.40;;;;;;;14.13;100.00;95943.81;4999695;28;24494;-75
2022/07/01 01:33:23;;;;;;;1.48;0.40;;;;;;;14.31;100.00;95946.78;5002274;28;25330;-75
2022/07/01 01:35:50;;;;;;;1.00;0.45;;;;;;;14.42;100.00;95932.97;5007706;28;24441;-75
2022/07/01 01:38:18;;;;;;;0.80;0.30;;;;;;;14.11;100.00;95929.22;4993382;28;24453;-75
2022/07/01 01:40:44;;;;;;;1.87;0.50;;;;;;;13.65;100.00;95924.81;5000482;28;24439;-75
2022/07/01 01:43:11;;;;;;;1.15;0.50;;;;;;;13.30;100.00;95926.38;4999503;28;25072;-75
2022/07/01 01:45:37;;;;;;;0.90;0.60;;;;;;;13.22;100.00;95915.66;5008836;28;24440;-75
2022/07/01 01:48:03;;;;;;;2.63;0.60;;;;;;;13.21;100.00;95906.19;4999874;28;24946;-75
2022/07/01 01:50:30;;;;;;;1.27;0.70;;;;;;;13.18;100.00;95896.00;5005516;28;24478;-75
2022/07/01 01:52:56;;;;;;;1.30;0.50;;;;;;;12.99;100.00;95895.66;4999118;28;24993;-75
2022/07/01 01:55:24;;;;;;;1.70;0.60;;;;;;;13.04;100.00;95896.16;5006447;28;24436;-75
2022/07/01 01:57:51;;;;;;;0.90;0.60;;;;;;;13.18;100.00;95887.38;4999737;28;24452;-75
2022/07/01 02:00:18;;;;;;;1.77;0.67;;;;;;;13.22;100.00;95886.22;4999163;28;24701;-75
2022/07/01 02:02:44;;;;;;;0.95;0.50;;;;;;;13.24;100.00;95885.22;5001820;28;24536;-75
2022/07/01 02:05:13;;;;;;;0.90;0.60;;;;;;;13.30;100.00;95869.16;5005139;28;24441;-75
2022/07/01 02:07:40;;;;;;;1.90;0.70;;;;;;;13.11;100.00;95865.34;5003476;28;24443;-75
2022/07/01 02:10:07;;;;;;;1.53;0.80;;;;;;;13.12;100.00;95867.84;4996390;28;24440;-75
2022/07/01 02:12:35;;;;;;;1.17;0.52;;;;;;;13.17;100.00;95860.56;4995724;28;25002;-75
2022/07/01 02:15:01;;;;;;;1.00;0.50;;;;;;;13.16;100.00;95873.66;5004387;28;24436;-75
2022/07/01 02:17:28;;;;;;;1.13;0.68;;;;;;;13.17;100.00;95865.75;5002975;28;24441;-75
2022/07/01 02:19:54;;;;;;;0.80;0.50;;;;;;;13.00;100.00;95873.91;5003883;28;24490;-75
2022/07/01 02:22:21;;;;;;;2.17;0.82;;;;;;;13.01;100.00;95875.56;5001295;28;24440;-75
2022/07/01 02:24:47;;;;;;;1.13;0.60;;;;;;;13.10;100.00;95880.13;4999924;28;25709;-75
2022/07/01 02:27:14;;;;;;;4.00;0.73;;;;;;;13.05;100.00;95883.06;4991423;28;24441;-75
2022/07/01 02:29:42;;;;;;;0.90;0.50;;;;;;;12.96;100.00;95883.69;4998759;28;24830;-74
2022/07/01 02:32:08;;;;;;;1.98;0.80;;;;;;;12.90;100.00;95889.31;5001231;28;24791;-75
2022/07/01 02:34:35;;;;;;;1.55;0.90;;;;;;;12.88;100.00;95885.19;5004956;28;24463;-75
2022/07/01 02:37:01;;;;;;;1.70;0.80;;;;;;;12.73;100.00;95874.91;4992737;28;24512;-75
2022/07/01 02:39:28;;;;;;;1.00;0.80;;;;;;;12.64;100.00;95883.34;5003008;28;24464;-75
2022/07/01 02:44:38;;;;;;;2.17;1.00;;;;;;;12.64;100.00;95882.50;4992354;28;24440;-75
2022/07/01 02:47:07;;;;;;;1.25;0.85;;;;;;;12.63;100.00;95884.28;5009222;28;24437;-75
2022/07/01 02:49:33;;;;;;;1.83;0.70;;;;;;;12.49;100.00;95877.41;5003861;28;24433;-75
2022/07/01 02:52:00;;;;;;;2.40;0.88;;;;;;;12.62;100.00;95885.22;4998827;28;24827;-75
2022/07/01 02:54:26;;;;;;;1.95;0.95;;;;;;;12.63;100.00;95889.47;4997982;28;24440;-75
2022/07/01 02:56:52;;;;;;;1.00;0.65;;;;;;;12.63;100.00;95891.25;5000041;28;24436;-75
2022/07/01 02:59:19;;;;;;;1.50;0.70;;;;;;;12.57;100.00;95885.53;5001048;28;24452;-75
2022/07/01 03:01:45;;;;;;;1.67;0.90;;;;;;;12.55;100.00;95886.56;4997806;28;25005;-75
2022/07/01 03:04:13;;;;;;;0.50;0.50;;;;;;;12.55;100.00;95884.81;5002996;28;24444;-75
2022/07/01 03:06:41;;;;;;;0.80;0.50;;;;;;;12.60;100.00;95879.28;5005980;28;24432;-75
2022/07/01 03:09:07;;;;;;;2.22;0.80;;;;;;;12.60;100.00;95874.09;5002210;28;24429;-75
2022/07/01 03:11:34;;;;;;;1.50;0.52;;;;;;;12.64;100.00;95861.72;5000116;28;24439;-75
2022/07/01 03:14:00;;;;;;;1.48;0.68;;;;;;;12.62;100.00;95861.84;5006387;28;24437;-75
2022/07/01 03:16:27;;;;;;;0.60;0.50;;;;;;;12.49;100.00;95858.41;5003925;28;24448;-75
2022/07/01 03:18:53;;;;;;;1.83;0.57;;;;;;;12.57;100.00;95879.53;5001771;28;24452;-74
2022/07/01 03:21:21;;;;;;;0.85;0.30;;;;;;;12.53;100.00;95885.84;5002976;28;25069;-74
2022/07/01 03:23:47;;;;;;;0.70;0.30;;;;;;;12.48;100.00;95906.94;5008457;28;24506;-74
2022/07/01 03:26:15;;;;;;;1.13;0.40;;;;;;;12.56;100.00;95917.63;4999876;28;24866;-74
2022/07/01 03:28:41;;;;;;;0.43;0.28;;;;;;;12.53;100.00;95919.59;4996833;28;24519;-74
2022/07/01 03:31:08;;;;;;;0.95;0.40;;;;;;;12.72;100.00;95913.97;5000724;28;24432;-74
2022/07/01 03:33:34;;;;;;;0.38;0.38;;;;;;;12.67;100.00;95927.31;4993432;28;24443;-74
2022/07/01 03:36:01;;;;;;;0.65;0.30;;;;;;;12.63;100.00;95931.03;5000813;28;24440;-74
2022/07/01 03:38:29;;;;;;;0.73;0.20;;;;;;;12.61;100.00;95917.34;5000705;28;24861;-74
2022/07/01 03:40:55;;;;;;;0.40;0.30;;;;;;;12.66;100.00;95922.22;4992626;28;24445;-74
2022/07/01 03:43:22;;;;;;;0.38;0.20;;;;;;;12.59;100.00;95933.03;5000595;28;24786;-74
2022/07/01 03:45:48;;;;;;;0.63;0.22;;;;;;;12.58;100.00;95927.94;4993004;28;24436;-74
2022/07/01 03:48:16;;;;;;;0.32;0.30;;;;;;;12.56;100.00;95930.63;5006498;28;24443;-74
2022/07/01 03:50:42;;;;;;;0.32;0.28;;;;;;;12.70;100.00;95932.28;5000508;28;25037;-74
2022/07/01 03:55:54;;;;;;;1.48;0.20;;;;;;;12.79;100.00;95951.59;4998835;28;24441;-74
2022/07/01 03:58:21;;;;;;;1.02;0.38;;;;;;;13.00;100.00;95972.72;5005630;28;24985;-74
2022/07/01 04:00:47;;;;;;;0.30;0.20;;;;;;;13.06;100.00;95978.31;4997880;28;24525;-74
2022/07/01 04:03:13;;;;;;;0.10;0.10;;;;;;;13.18;100.00;95983.59;4999783;28;24441;-74
2022/07/01 04:05:40;;;;;;;1.00;0.20;;;;;;;13.16;100.00;95993.28;5005531;28;24444;-74
2022/07/01 04:08:10;;;;;;;0.70;0.10;;;;;;;13.27;100.00;96004.66;4996761;28;24452;-75
2022/07/01 04:10:38;;;;;;;0.40;0.30;;;;;;;13.19;100.00;96001.69;4995204;28;24440;-75
2022/07/01 04:13:06;;;;;;;0.40;0.20;;;;;;;13.16;100.00;95995.88;5004527;28;24448;-75
2022/07/01 04:15:33;;;;;;;0.10;0.10;;;;;;;13.07;100.00;95987.78;5000958;28;24500;-75
2022/07/01 04:18:00;;;;;;;1.30;0.32;;;;;;;12.97;100.00;95981.53;5001930;28;24507;-74
2022/07/01 04:20:27;;;;;;;0.70;0.25;;;;;;;12.95;100.00;95982.59;4995644;28;24479;-75
2022/07/01 04:22:52;;;;;;;0.30;0.10;;;;;;;12.89;100.00;95978.66;5002985;28;24441;-75
2022/07/01 04:25:19;;;;;;;0.60;0.10;;;;;;;12.89;100.00;95983.84;4998186;28;24460;-75
2022/07/01 04:27:45;;;;;;;0.25;0.13;;;;;;;12.88;100.00;95974.38;4989835;28;24971;-75
2022/07/01 04:30:14;;;;;;;0.40;0.10;;;;;;;12.79;100.00;95981.06;5002974;28;24437;-75
2022/07/01 04:32:40;;;;;;;0.52;0.13;;;;;;;12.79;100.00;95985.41;5005902;28;24467;-75
2022/07/01 04:35:07;;;;;;;3.00;0.17;;;;;;;12.86;100.00;95997.03;4998671;28;24438;-75
2022/07/01 04:37:33;;;;;;;1.40;0.20;;;;;;;12.73;100.00;95997.06;4997991;28;24543;-75
2022/07/01 04:40:00;;;;;;;2.70;0.30;;;;;;;12.70;100.00;96004.22;5003017;28;24453;-75
2022/07/01 04:42:27;;;;;;;0.47;0.20;;;;;;;12.77;100.00;96001.09;5002214;28;24441;-75
2022/07/01 04:44:53;;;;;;;0.38;0.17;;;;;;;12.72;100.00;96007.53;5003259;28;24518;-75
2022/07/01 04:47:23;;;;;;;0.55;0.15;;;;;;;12.70;100.00;96007.66;4997550;28;24437;-75
2022/07/01 04:49:49;;;;;;;0.52;0.10;;;;;;;12.73;100.00;96010.06;5000547;28;24532;-75
2022/07/01 04:52:16;;;;;;;0.60;0.17;;;;;;;12.68;100.00;96000.88;4995073;28;24846;-75
2022/07/01 04:54:42;;;;;;;0.60;0.13;;;;;;;12.55;100.00;96001.72;5000025;28;25020;-75
2022/07/01 04:57:09;;;;;;;0.40;0.20;;;;;;;12.53;100.00;96001.00;5002237;28;24982;-75
2022/07/01 04:59:36;;;;;;;0.65;0.30;;;;;;;12.59;100.00;95997.16;4997486;28;24499;-75
2022/07/01 05:02:03;;;;;;;0.90;0.10;;;;;;;12.55;100.00;95995.69;4998152;28;24447;-75
2022/07/01 05:04:30;;;;;;;0.93;0.28;;;;;;;12.74;100.00;95990.09;5001725;28;24452;-75
2022/07/01 05:06:57;;;;;;;0.43;0.20;;;;;;;12.73;100.00;95991.03;4988450;28;24517;-75
2022/07/01 05:09:23;;;;;;;2.17;0.93;;;;;;;12.59;100.00;95985.00;4995125;28;24433;-75
2022/07/01 05:11:58;;;;;;;1.33;0.30;;;;;;;12.73;100.00;95994.47;5148297;27;21126;-74
2022/07/01 05:14:25;;;;;;;0.77;0.27;;;;;;;12.64;100.00;95992.47;5126878;28;25005;-74
2022/07/01 05:16:51;;;;;;;0.28;0.20;;;;;;;12.82;100.00;95996.41;5126797;27;24440;-74
2022/07/01 05:22:01;;;;;;;0.40;0.30;;;;;;;12.75;100.00;95986.53;5120454;27;24476;-74
2022/07/01 05:24:30;;;;;;;1.00;0.30;;;;;;;12.77;100.00;95990.72;5135199;27;24444;-74
2022/07/01 05:26:59;;;;;;;0.75;0.30;;;;;;;12.74;100.00;95992.69;5129836;27;25098;-74
2022/07/01 05:29:26;;;;;;;0.57;0.30;;;;;;;12.76;100.00;95989.06;5136311;27;24440;-74
2022/07/01 05:31:52;;;;;;;0.70;0.30;;;;;;;12.58;100.00;95985.94;5130553;27;24441;-74
2022/07/01 05:34:19;;;;;;;0.40;0.25;;;;;;;12.56;100.00;95992.16;5125817;27;24459;-74
2022/07/01 05:36:45;;;;;;;1.90;0.40;;;;;;;12.54;100.00;95988.84;5131257;27;24576;-74
2022/07/01 05:39:12;;;;;;;0.55;0.22;;;;;;;12.66;100.00;95982.81;5133091;27;24998;-76
2022/07/01 05:41:39;;;;;;;1.08;0.40;;;;;;;12.71;100.00;95990.28;5127649;27;25016;-75
2022/07/01 05:44:06;;;;;;;0.75;0.17;;;;;;;12.92;100.00;95999.22;5122707;27;24433;-75
2022/07/01 05:46:33;;;;;;;0.80;0.30;;;;;;;13.14;100.00;96000.38;5134153;27;24793;-75
2022/07/01 05:49:00;;;;;;;0.38;0.20;;;;;;;13.03;100.00;96001.94;5133276;27;24436;-75
2022/07/01 05:51:26;;;;;;;1.13;0.40;;;;;;;12.97;100.00;96007.53;5120536;27;24456;-76
2022/07/01 05:53:53;;;;;;;0.60;0.30;;;;;;;12.82;100.00;96009.41;5138216;27;24440;-76
2022/07/01 05:56:20;;;;;;;0.60;0.20;;;;;;;12.88;100.00;96012.56;5137769;27;24441;-76
2022/07/01 05:58:46;;;;;;;1.33;0.40;;;;;;;12.86;100.00;96017.00;5140324;27;24543;-75
2022/07/01 06:01:15;;;;;;;0.70;0.32;;;;;;;12.87;100.00;96023.88;5122345;27;24433;-76
2022/07/01 06:03:41;;;;;;;1.50;0.30;;;;;;;13.04;100.00;96024.38;5132846;27;24475;-75
2022/07/01 06:06:08;;;;;;;0.80;0.32;;;;;;;13.12;100.00;96036.84;5128882;27;24482;-77
2022/07/01 06:08:35;;;;;;;0.55;0.30;;;;;;;13.24;100.00;96046.47;5133506;27;25772;-75
2022/07/01 06:11:01;;;;;;;1.42;0.40;;;;;;;13.19;100.00;96058.06;5134610;27;24456;-76
2022/07/01 06:13:29;;;;;;;1.23;0.50;;;;;;;13.14;100.00;96068.81;5135879;27;24532;-76
2022/07/01 06:15:58;;;;;;;0.65;0.40;;;;;;;13.30;100.00;96079.84;5122826;27;24483;-77
2022/07/01 06:18:26;;;;;;;0.60;0.40;;;;;;;13.31;100.00;96071.13;5130422;27;24480;-76
2022/07/01 06:20:52;;;;;;;1.60;0.57;;;;;;;13.42;100.00;96070.38;5136630;27;24436;-77
2022/07/01 06:23:18;;;;;;;1.17;0.50;;;;;;;13.47;100.00;96070.88;5120672;27;25022;-74
2022/07/01 06:25:45;;;;;;;1.00;0.50;;;;;;;13.48;100.00;96074.31;5118061;27;24498;-74
2022/07/01 06:28:12;;;;;;;2.28;0.68;;;;;;;13.23;100.00;96069.94;5119035;27;24495;-76
2022/07/01 06:30:42;;;;;;;1.13;0.50;;;;;;;13.41;100.00;96052.25;5122478;27;24453;-73
2022/07/01 06:33:09;;;;;;;1.20;0.50;;;;;;;13.55;100.00;96058.16;5120010;27;24985;-74
2022/07/01 06:35:37;;;;;;;0.93;0.40;;;;;;;13.63;100.00;96057.63;5120413;27;25034;-73
2022/07/01 06:38:04;;;;;;;1.95;0.80;;;;;;;13.62;100.00;96058.56;5120989;27;24443;-74
2022/07/01 06:40:30;;;;;;;0.43;0.30;;;;;;;13.64;100.00;96051.47;5123926;27;24425;-74
2022/07/01 06:42:57;;;;;;;3.53;0.60;;;;;;;13.74;100.00;96060.31;5118412;27;24441;-75
2022/07/01 06:45:23;;;;;;;1.08;0.30;;;;;;;13.79;100.00;96067.78;5124395;27;24441;-76
2022/07/01 06:47:49;;;;;;;0.88;0.40;;;;;;;13.90;100.00;96072.22;5124316;27;24781;-75
2022/07/01 06:50:16;;;;;;;0.53;0.20;;;;;;;13.67;100.00;96074.69;5121527;27;24997;-76
2022/07/01 06:52:44;;;;;;;0.88;0.30;;;;;;;13.60;100.00;96070.84;5111868;27;24442;-75
2022/07/01 06:55:10;;;;;;;0.75;0.40;;;;;;;13.71;100.00;96064.88;5119287;27;24433;-76
2022/07/01 06:57:37;;;;;;;1.30;0.38;;;;;;;13.80;100.00;96064.25;5113902;27;24445;-74
2022/07/01 07:00:04;;;;;;;1.17;0.40;;;;;;;13.83;100.00;96076.22;5118237;27;24440;-74
2022/07/01 07:02:30;;;;;;;1.57;0.80;;;;;;;13.95;100.00;96077.97;5121665;27;24442;-75
2022/07/01 07:04:58;;;;;;;2.20;0.68;;;;;;;14.08;100.00;96072.69;5117673;27;24479;-74
2022/07/01 07:07:24;;;;;;;4.25;0.77;;;;;;;14.42;100.00;96066.69;5122223;27;24444;-76
2022/07/01 07:09:52;;;;;;;1.25;0.68;;;;;;;14.65;100.00;96072.88;5119616;27;24430;-75
2022/07/01 07:12:19;;;;;;;0.57;0.30;;;;;;;14.42;100.00;96076.28;5127914;27;24457;-75
2022/07/01 07:14:45;;;;;;;1.17;0.70;;;;;;;14.09;100.00;96082.16;5120396;27;24452;-75
2022/07/01 07:17:12;;;;;;;1.20;0.50;;;;;;;14.11;100.00;96094.13;5100082;28;24830;-76
2022/07/01 07:19:38;;;;;;;2.30;0.77;;;;;;;13.89;100.00;96105.25;5119646;27;24806;-76
2022/07/01 07:22:05;;;;;;;0.60;0.47;;;;;;;13.91;100.00;96124.22;5111792;27;25100;-76
2022/07/01 07:24:31;;;;;;;1.55;0.60;;;;;;;13.98;100.00;96115.03;5114656;27;24493;-75
2022/07/01 07:26:59;;;;;;;1.30;0.60;;;;;;;13.98;100.00;96114.19;5124731;27;24433;-75
2022/07/01 07:29:25;;;;;;;1.38;0.60;;;;;;;14.04;100.00;96111.16;5117960;27;24437;-76
2022/07/01 07:31:52;;;;;;;2.50;0.70;;;;;;;14.06;100.00;96100.63;5108188;27;24450;-75
2022/07/01 07:34:18;;;;;;;0.82;0.47;;;;;;;13.96;100.00;96116.91;5117498;27;24440;-74
2022/07/01 07:36:44;;;;;;;2.20;0.40;;;;;;;13.90;100.00;96101.69;5106896;27;24429;-75
2022/07/01 07:39:11;;;;;;;1.05;0.40;;;;;;;13.88;100.00;96090.56;5118084;27;24464;-75
2022/07/01 07:41:39;;;;;;;1.52;0.63;;;;;;;13.92;100.00;96085.97;5115441;27;24989;-75
2022/07/01 07:44:06;;;;;;;0.68;0.35;;;;;;;13.95;100.00;96088.38;5124081;27;24433;-75
2022/07/01 07:46:33;;;;;;;0.50;0.40;;;;;;;13.96;100.00;96105.66;5122089;27;24437;-76
2022/07/01 07:48:59;;;;;;;1.40;0.60;;;;;;;14.11;100.00;96104.56;5117090;27;24882;-75
2022/07/01 07:51:26;;;;;;;0.30;0.30;;;;;;;14.21;100.00;96113.38;5112688;27;24515;-76
2022/07/01 07:53:52;;;;;;;0.77;0.40;;;;;;;14.08;100.00;96112.59;5120442;27;24444;-76
2022/07/01 07:56:20;;;;;;;0.70;0.50;;;;;;;14.09;100.00;96110.81;5118293;27;24433;-76
2022/07/01 07:58:46;;;;;;;1.63;0.90;;;;;;;14.23;100.00;96115.88;5112408;27;24448;-76
2022/07/01 08:01:14;;;;;;;1.20;0.70;;;;;;;14.26;100.00;96126.91;5113905;27;24425;-75
2022/07/01 08:03:41;;;;;;;2.45;0.60;;;;;;;14.11;100.00;96129.78;5120449;27;24440;-76
2022/07/01 08:06:07;;;;;;;1.60;0.68;;;;;;;13.92;100.00;96141.50;5117915;27;24504;-76
2022/07/01 08:08:34;;;;;;;1.80;0.70;;;;;;;13.85;100.00;96142.03;5122643;27;24441;-74
2022/07/01 08:11:01;;;;;;;2.10;0.80;;;;;;;13.75;100.00;96145.25;5118045;27;24831;-74
2022/07/01 08:13:27;;;;;;;1.70;0.80;;;;;;;13.84;100.00;96146.41;5119377;27;24839;-75
2022/07/01 08:15:54;;;;;;;2.75;1.27;;;;;;;13.86;100.00;96138.47;5126706;27;24489;-75
2022/07/01 08:18:22;;;;;;;3.85;0.90;;;;;;;13.71;100.00;96137.78;5119760;27;24445;-76
2022/07/01 08:20:52;;;;;;;2.70;0.90;;;;;;;13.89;100.00;96135.66;5109657;28;24437;-75
2022/07/01 08:23:19;;;;;;;0.93;0.40;;;;;;;13.94;100.00;96139.63;5109580;27;24933;-75
2022/07/01 08:25:45;;;;;;;1.15;0.45;;;;;;;13.94;100.00;96149.19;5127817;27;24795;-75
2022/07/01 08:28:11;;;;;;;0.60;0.30;;;;;;;13.93;100.00;96157.94;5114193;27;24584;-74
2022/07/01 08:30:38;;;;;;;0.52;0.40;;;;;;;13.93;100.00;96156.16;5123811;27;24829;-74
2022/07/01 08:33:05;;;;;;;2.22;0.60;;;;;;;13.91;100.00;96165.88;5119392;27;24459;-74
2022/07/01 08:35:33;;;;;;;0.90;0.40;;;;;;;13.94;100.00;96175.22;5117514;27;24430;-76
2022/07/01 08:37:59;;;;;;;1.33;0.55;;;;;;;13.98;100.00;96180.13;5117166;27;24441;-75
2022/07/01 08:40:27;;;;;;;0.73;0.50;;;;;;;14.01;100.00;96176.47;5117945;27;24986;-76
2022/07/01 08:42:57;;;;;;;0.80;0.47;;;;;;;14.01;100.00;96189.47;5111557;27;24433;-74
2022/07/01 08:45:25;;;;;;;1.00;0.65;;;;;;;13.81;100.00;96188.28;5109785;27;24528;-74
2022/07/01 08:47:55;;;;;;;1.17;0.50;;;;;;;13.78;100.00;96180.66;5114757;27;25166;-73
2022/07/01 08:50:22;;;;;;;1.58;0.45;;;;;;;13.83;100.00;96180.34;5112794;27;24515;-74
2022/07/01 08:52:50;;;;;;;0.85;0.40;;;;;;;13.55;100.00;96177.88;5114371;27;24786;-74
2022/07/01 08:55:16;;;;;;;0.55;0.30;;;;;;;13.63;100.00;96187.75;5113276;27;24849;-75
2022/07/01 08:57:43;;;;;;;1.77;0.52;;;;;;;13.67;100.00;96183.19;5116906;27;24441;-74
2022/07/01 09:00:10;;;;;;;0.80;0.50;;;;;;;13.80;100.00;96163.19;5116117;27;24997;-75
2022/07/01 09:02:55;;;;;;;1.00;0.57;;;;;;;14.49;100.00;96153.06;5105815;27;24445;-74
2022/07/01 09:05:23;;;;;;;2.20;0.88;;;;;;;14.42;100.00;96155.28;5103625;28;24440;-74
2022/07/01 09:07:57;;;;;;;1.10;0.57;;;;;;;14.14;100.00;96156.44;5112802;27;24444;-75
2022/07/01 09:10:24;;;;;;;1.35;0.60;;;;;;;14.13;100.00;96154.78;5108259;28;24457;-75
2022/07/01 09:12:51;;;;;;;1.33;0.80;;;;;;;14.12;100.00;96162.69;5109929;28;24824;-75
2022/07/01 09:15:26;;;;;;;0.98;0.52;;;;;;;14.20;100.00;96165.56;5115917;28;24989;-74
2022/07/01 09:17:54;;;;;;;1.55;0.60;;;;;;;14.29;100.00;96180.56;5118255;28;24461;-73
2022/07/01 09:20:29;;;;;;;1.05;0.60;;;;;;;14.46;100.00;96179.34;5110225;28;24438;-74
2022/07/01 09:23:05;;;;;;;1.20;0.50;;;;;;;14.49;100.00;96181.75;5104171;28;24437;-74
2022/07/01 09:25:34;;;;;;;1.08;0.60;;;;;;;14.48;100.00;96173.09;5123394;28;24439;-73
2022/07/01 09:28:05;;;;;;;0.90;0.38;;;;;;;14.58;100.00;96164.66;5116891;28;24436;-74
2022/07/01 09:30:32;;;;;;;0.57;0.30;;;;;;;14.46;100.00;96164.56;5121272;28;24429;-73
2022/07/01 09:33:06;;;;;;;0.52;0.40;;;;;;;14.40;100.00;96170.22;5114513;27;24526;-74
2022/07/01 09:35:32;;;;;;;0.95;0.40;;;;;;;14.29;100.00;96175.34;5115379;28;24524;-73
2022/07/01 09:37:59;;;;;;;0.90;0.50;;;;;;;14.50;100.00;96181.69;5116179;27;24532;-74
2022/07/01 09:40:45;;;;;;;1.70;0.50;;;;;;;14.49;100.00;96186.97;5114997;28;24437;-73
2022/07/01 09:43:15;;;;;;;0.90;0.50;;;;;;;14.43;100.00;96184.81;5108259;28;24437;-73
2022/07/01 09:45:50;;;;;;;0.82;0.50;;;;;;;14.66;100.00;96189.22;5120699;27;24429;-74
2022/07/01 09:48:16;;;;;;;1.80;0.50;;;;;;;14.76;100.00;96190.22;5119330;27;24494;-73
2022/07/01 09:50:43;;;;;;;0.85;0.43;;;;;;;14.91;100.00;96190.06;5108325;27;24840;-73
2022/07/01 09:53:10;;;;;;;1.48;0.77;;;;;;;15.07;100.00;96193.19;5115020;28;24460;-74
2022/07/01 09:55:39;;;;;;;3.67;0.82;;;;;;;15.18;100.00;96202.81;5110131;27;24521;-73
2022/07/01 09:58:06;;;;;;;1.60;0.60;;;;;;;14.95;100.00;96200.13;5112782;27;24469;-73
2022/07/01 10:00:32;;;;;;;1.00;0.60;;;;;;;14.68;100.00;96196.91;5111782;28;24512;-73
2022/07/01 10:03:01;;;;;;;1.13;0.50;;;;;;;14.88;100.00;96192.88;5114930;27;24433;-73
2022/07/01 10:05:30;;;;;;;1.52;0.60;;;;;;;15.13;100.00;96199.72;5114330;27;24434;-73
2022/07/01 10:08:06;;;;;;;1.25;0.65;;;;;;;15.22;100.00;96199.03;5110867;27;24425;-73
2022/07/01 10:10:45;;;;;;;0.98;0.52;;;;;;;14.95;100.00;96204.53;5111094;27;24441;-73
2022/07/01 10:13:16;;;;;;;1.25;0.90;;;;;;;15.27;100.00;96202.13;5110181;27;24503;-73
2022/07/01 10:15:44;;;;;;;1.55;0.68;;;;;;;15.35;100.00;96205.03;5110293;27;24449;-73
2022/07/01 10:18:21;;;;;;;2.07;0.80;;;;;;;14.80;100.00;96203.03;5111519;27;24561;-75
2022/07/01 10:20:48;;;;;;;1.13;0.65;;;;;;;14.70;100.00;96205.47;5112517;27;24525;-74
2022/07/01 10:23:15;;;;;;;0.70;0.50;;;;;;;14.59;100.00;96198.44;5112702;28;24529;-73
2022/07/01 10:25:45;;;;;;;1.70;0.80;;;;;;;14.28;100.00;96202.38;5112671;27;24437;-74
2022/07/01 10:28:23;;;;;;;1.13;0.50;;;;;;;14.37;100.00;96209.50;5100057;27;24436;-74
2022/07/01 10:31:13;;;;;;;5.63;0.82;;;;;;;15.11;100.00;96210.28;5112455;27;24433;-74
2022/07/01 10:33:42;;;;;;;1.50;0.55;;;;;;;14.87;100.00;96219.88;5115960;27;24810;-72
2022/07/01 10:36:12;;;;;;;4.88;0.60;;;;;;;14.87;100.00;96231.16;5118744;27;24985;-73
2022/07/01 10:39:10;;;;;;;2.47;0.60;;;;;;;15.14;100.00;96235.31;5107922;27;25061;-73
2022/07/01 10:41:40;;;;;;;0.80;0.52;;;;;;;14.94;100.00;96239.34;5116551;27;25023;-75
2022/07/01 10:44:08;;;;;;;9.93;0.90;;;;;;;14.74;100.00;96232.97;5123723;27;24437;-75
2022/07/01 10:46:40;;;;;;;1.20;0.60;;;;;;;14.83;100.00;96232.34;5112512;27;24810;-75
2022/07/01 10:49:07;;;;;;;0.95;0.70;;;;;;;15.21;100.00;96231.31;5126236;27;24433;-75
2022/07/01 10:51:47;;;;;;;0.90;0.50;;;;;;;15.22;100.00;96231.19;5123839;27;24568;-74
2022/07/01 10:54:13;;;;;;;1.45;0.60;;;;;;;15.15;100.00;96236.97;5111523;27;24491;-74
2022/07/01 10:56:42;;;;;;;0.85;0.63;;;;;;;15.25;100.00;96237.97;5110034;27;24440;-74
2022/07/01 10:59:18;;;;;;;1.00;0.60;;;;;;;15.23;100.00;96238.06;5119370;27;24536;-75
2022/07/01 11:01:44;;;;;;;2.28;0.70;;;;;;;15.20;100.00;96235.69;5122372;27;24529;-74
2022/07/01 11:04:11;;;;;;;1.52;0.80;;;;;;;15.28;100.00;96244.72;5122944;27;24489;-75
2022/07/01 11:06:39;;;;;;;1.70;0.80;;;;;;;15.35;100.00;96233.72;5114543;27;24440;-75
2022/07/01 11:09:05;;;;;;;1.63;0.63;;;;;;;15.42;100.00;96234.06;5124701;27;24536;-74
2022/07/01 11:11:31;;;;;;;1.63;0.60;;;;;;;15.88;100.00;96228.03;5123465;27;24803;-75
2022/07/01 11:14:01;;;;;;;1.00;0.68;;;;;;;16.03;100.00;96223.41;5124080;27;24448;-75
2022/07/01 11:16:30;;;;;;;2.78;1.15;;;;;;;16.24;100.00;96215.66;5113388;27;25043;-74
2022/07/01 11:18:56;;;;;;;2.00;0.57;;;;;;;16.64;100.00;96221.19;5127786;27;24972;-75
2022/07/01 11:21:25;;;;;;;1.73;0.90;;;;;;;17.19;100.00;96222.00;5120991;27;24456;-74
2022/07/01 11:23:55;;;;;;;0.97;0.60;;;;;;;17.11;90.67;96224.41;5124240;27;24441;-75
2022/07/01 11:26:23;;;;;;;2.30;0.80;;;;;;;16.92;87.37;96220.69;5118177;27;24475;-75
2022/07/01 11:28:50;;;;;;;3.03;0.82;;;;;;;17.02;91.50;96218.16;5116182;27;25000;-76
2022/07/01 11:31:28;;;;;;;1.75;0.52;;;;;;;17.31;91.54;96222.78;5116656;27;24440;-75
2022/07/01 11:33:55;;;;;;;2.40;0.90;;;;;;;17.07;90.68;96220.41;5122098;27;24492;-74